Airfield :
LOGIN :

Register | Disclaimer

   EN    FR    IT 

 










Legend :    VFR   Marginal VFR   IFR   Intensive IFR   Very Intensive IFR
Visi :
Ceiling :
>= 8 km
>= 3000ft
5 to 8 km
1000 to 3000 ft
1500m to 5 km
500 to 1000 ft
800 to 1500m
200 to 500 ft
< 800m
< 200 ft
Symbols :   Thunderstorms  Fog  Heavy snow  Heavy precipitations  Wind > 20 kt
SIGMETs :     Misc.  Thunderstorms  Icing  Turbulence  Mountain Waves  Volcanic Ashes






- Airport Elevation : 268 ft
- IATA code : BFS


EGAA - Belfast Aldergrove

CURRENT METAR :
  • 242320Z 21008KT 9999 OVC008 06/06 Q1017

EXPIRED METARs :
  • 242250Z 21008KT 180V240 9999 BKN009 06/06 Q1017
  • 242220Z 20007KT 9999 BKN011 06/06 Q1017
  • 242150Z 20007KT 9999 FEW008 BKN014 06/06 Q1018
  • 242120Z 20006KT 160V230 9999 FEW007 BKN014 06/06 Q1018
  • 242050Z 21009KT 9999 SCT005 BKN009 06/06 Q1018

TAF TAF EGAA
Valid from the 25 at 00:00 until the 26 at 00:00 UTC


242258Z 2500/2524 20008KT 9999 SCT010 BKN015
TEMPO 2500/2512 BKN010
PROB30
TEMPO 2500/2509 8000 BKN007
PROB30
TEMPO 2512/2524 BKN014
BECMG 2520/2523 18015G25KT



MET'MAP, your aeronautical weather chart ! - Copyright ORBIFLY December 2007 - Disclaimer

ORBIFLY MET'MAP TEAM :

Programming & Development : Alexandra Zaïnal
Concept & original design : Baudouin d'Aumeries
Assistance for programming : Marc-Olivier Méhu
Technical & hardware support : Manuel Goepfert

Contact : metmap@orbifly.com




SOURCES & CREDITS :

   NOAA